sensor_id;sensor_type;location;lat;lon;timestamp;pressure;altitude;pressure_sealevel;temperature;humidity
75219;BME280;63801;49.414;19.474;2023-10-08T00:00:26;93693.00;;;14.62;74.89
75219;BME280;63801;49.414;19.474;2023-10-08T00:02:49;93698.41;;;14.58;75.37
75219;BME280;63801;49.414;19.474;2023-10-08T00:04:50;93686.75;;;14.54;75.34
75219;BME280;63801;49.414;19.474;2023-10-08T00:06:54;93680.03;;;14.41;75.32
75219;BME280;63801;49.414;19.474;2023-10-08T00:08:56;93674.97;;;14.36;75.35
75219;BME280;63801;49.414;19.474;2023-10-08T00:11:00;93685.88;;;14.43;75.28
75219;BME280;63801;49.414;19.474;2023-10-08T00:13:18;93673.06;;;14.40;75.28
75219;BME280;63801;49.414;19.474;2023-10-08T00:15:19;93662.50;;;14.35;76.21
75219;BME280;63801;49.414;19.474;2023-10-08T00:17:19;93657.09;;;14.35;75.95
75219;BME280;63801;49.414;19.474;2023-10-08T00:19:19;93664.03;;;14.29;75.82
75219;BME280;63801;49.414;19.474;2023-10-08T00:21:21;93664.75;;;14.26;76.24
75219;BME280;63801;49.414;19.474;2023-10-08T00:23:26;93675.13;;;14.17;76.46
75219;BME280;63801;49.414;19.474;2023-10-08T00:25:26;93664.66;;;14.15;76.15
75219;BME280;63801;49.414;19.474;2023-10-08T00:27:27;93658.03;;;14.13;76.74
75219;BME280;63801;49.414;19.474;2023-10-08T00:29:27;93650.66;;;14.10;76.39
75219;BME280;63801;49.414;19.474;2023-10-08T00:31:34;93657.19;;;14.05;76.81
75219;BME280;63801;49.414;19.474;2023-10-08T00:33:40;93654.03;;;14.00;77.17
75219;BME280;63801;49.414;19.474;2023-10-08T00:35:44;93654.78;;;13.97;77.96
75219;BME280;63801;49.414;19.474;2023-10-08T00:37:44;93651.25;;;13.92;77.48
75219;BME280;63801;49.414;19.474;2023-10-08T00:39:45;93649.66;;;13.88;77.95
75219;BME280;63801;49.414;19.474;2023-10-08T00:41:46;93655.41;;;13.83;77.67
75219;BME280;63801;49.414;19.474;2023-10-08T00:43:47;93633.69;;;13.79;77.84
75219;BME280;63801;49.414;19.474;2023-10-08T00:45:48;93647.56;;;13.74;78.03
75219;BME280;63801;49.414;19.474;2023-10-08T00:47:50;93655.28;;;13.72;78.12
75219;BME280;63801;49.414;19.474;2023-10-08T00:49:55;93646.34;;;13.68;77.98
75219;BME280;63801;49.414;19.474;2023-10-08T00:52:05;93656.03;;;13.69;77.96
75219;BME280;63801;49.414;19.474;2023-10-08T00:54:08;93656.00;;;13.66;78.27
75219;BME280;63801;49.414;19.474;2023-10-08T00:56:10;93655.97;;;13.62;78.54
75219;BME280;63801;49.414;19.474;2023-10-08T00:58:14;93662.50;;;13.61;78.82
75219;BME280;63801;49.414;19.474;2023-10-08T01:00:26;93649.28;;;13.56;78.85
75219;BME280;63801;49.414;19.474;2023-10-08T01:02:33;93652.75;;;13.53;79.45
75219;BME280;63801;49.414;19.474;2023-10-08T01:04:45;93637.50;;;13.41;79.23
75219;BME280;63801;49.414;19.474;2023-10-08T01:06:46;93643.00;;;13.45;80.11
75219;BME280;63801;49.414;19.474;2023-10-08T01:08:49;93639.03;;;13.39;79.66
75219;BME280;63801;49.414;19.474;2023-10-08T01:10:54;93637.88;;;13.40;79.94
75219;BME280;63801;49.414;19.474;2023-10-08T01:13:00;93640.16;;;13.38;80.02
75219;BME280;63801;49.414;19.474;2023-10-08T01:15:01;93641.69;;;13.35;80.42
75219;BME280;63801;49.414;19.474;2023-10-08T01:17:16;93647.06;;;13.32;80.48
75219;BME280;63801;49.414;19.474;2023-10-08T01:19:19;93644.72;;;13.30;80.24
75219;BME280;63801;49.414;19.474;2023-10-08T01:21:20;93619.91;;;13.25;80.26
75219;BME280;63801;49.414;19.474;2023-10-08T01:23:40;93629.53;;;13.22;79.87
75219;BME280;63801;49.414;19.474;2023-10-08T01:25:40;93626.53;;;13.27;80.48
75219;BME280;63801;49.414;19.474;2023-10-08T01:27:42;93623.03;;;13.27;80.93
75219;BME280;63801;49.414;19.474;2023-10-08T01:29:42;93622.59;;;13.25;80.96
75219;BME280;63801;49.414;19.474;2023-10-08T01:31:47;93619.50;;;13.23;80.96
75219;BME280;63801;49.414;19.474;2023-10-08T01:33:55;93606.25;;;13.14;80.85
75219;BME280;63801;49.414;19.474;2023-10-08T01:35:57;93612.53;;;13.22;81.15
75219;BME280;63801;49.414;19.474;2023-10-08T01:38:04;93609.38;;;13.20;81.03
75219;BME280;63801;49.414;19.474;2023-10-08T01:40:07;93609.81;;;13.22;80.88
75219;BME280;63801;49.414;19.474;2023-10-08T01:42:08;93614.84;;;13.23;81.13
75219;BME280;63801;49.414;19.474;2023-10-08T01:44:16;93622.59;;;13.25;80.73
75219;BME280;63801;49.414;19.474;2023-10-08T01:46:17;93613.34;;;13.26;80.97
75219;BME280;63801;49.414;19.474;2023-10-08T01:48:17;93605.22;;;13.26;80.97
75219;BME280;63801;49.414;19.474;2023-10-08T01:50:27;93614.13;;;13.26;80.79
75219;BME280;63801;49.414;19.474;2023-10-08T01:52:31;93611.44;;;13.30;80.83
75219;BME280;63801;49.414;19.474;2023-10-08T01:54:31;93602.97;;;13.31;80.90
75219;BME280;63801;49.414;19.474;2023-10-08T01:56:42;93597.91;;;13.30;81.24
75219;BME280;63801;49.414;19.474;2023-10-08T01:58:42;93603.34;;;13.30;80.93
75219;BME280;63801;49.414;19.474;2023-10-08T02:00:46;93605.69;;;13.31;80.92
75219;BME280;63801;49.414;19.474;2023-10-08T02:02:47;93595.56;;;13.28;80.83
75219;BME280;63801;49.414;19.474;2023-10-08T02:04:47;93594.47;;;13.33;81.10
75219;BME280;63801;49.414;19.474;2023-10-08T02:06:47;93591.75;;;13.33;80.95
75219;BME280;63801;49.414;19.474;2023-10-08T02:08:48;93590.63;;;13.34;81.32
75219;BME280;63801;49.414;19.474;2023-10-08T02:10:48;93586.34;;;13.33;81.03
75219;BME280;63801;49.414;19.474;2023-10-08T02:12:48;93596.47;;;13.36;80.64
75219;BME280;63801;49.414;19.474;2023-10-08T02:14:49;93565.28;;;13.19;81.04
75219;BME280;63801;49.414;19.474;2023-10-08T02:16:50;93597.28;;;13.40;80.90
75219;BME280;63801;49.414;19.474;2023-10-08T02:18:52;93593.81;;;13.43;81.31
75219;BME280;63801;49.414;19.474;2023-10-08T02:20:52;93601.94;;;13.43;80.90
75219;BME280;63801;49.414;19.474;2023-10-08T02:22:53;93593.41;;;13.41;80.97
75219;BME280;63801;49.414;19.474;2023-10-08T02:24:54;93606.59;;;13.46;80.73
75219;BME280;63801;49.414;19.474;2023-10-08T02:26:55;93595.34;;;13.40;80.79
75219;BME280;63801;49.414;19.474;2023-10-08T02:28:57;93597.03;;;13.52;80.88
75219;BME280;63801;49.414;19.474;2023-10-08T02:30:59;93597.44;;;13.54;80.66
75219;BME280;63801;49.414;19.474;2023-10-08T02:33:00;93592.78;;;13.55;80.52
75219;BME280;63801;49.414;19.474;2023-10-08T02:35:00;93590.53;;;13.60;80.77
75219;BME280;63801;49.414;19.474;2023-10-08T02:37:01;93569.59;;;13.57;80.79
75219;BME280;63801;49.414;19.474;2023-10-08T02:39:04;93570.47;;;13.68;80.65
75219;BME280;63801;49.414;19.474;2023-10-08T02:41:08;93563.56;;;13.71;80.35
75219;BME280;63801;49.414;19.474;2023-10-08T02:43:08;93557.72;;;13.69;80.37
75219;BME280;63801;49.414;19.474;2023-10-08T02:45:13;93544.91;;;13.62;80.43
75219;BME280;63801;49.414;19.474;2023-10-08T02:47:13;93565.50;;;13.74;80.54
75219;BME280;63801;49.414;19.474;2023-10-08T02:49:19;93559.31;;;13.73;80.36
75219;BME280;63801;49.414;19.474;2023-10-08T02:51:20;93557.38;;;13.74;80.44
75219;BME280;63801;49.414;19.474;2023-10-08T02:53:21;93553.16;;;13.76;80.10
75219;BME280;63801;49.414;19.474;2023-10-08T02:55:25;93544.66;;;13.78;79.97
75219;BME280;63801;49.414;19.474;2023-10-08T02:57:34;93534.59;;;13.78;80.23
75219;BME280;63801;49.414;19.474;2023-10-08T02:59:35;93549.72;;;13.79;80.10
75219;BME280;63801;49.414;19.474;2023-10-08T03:01:39;93553.56;;;13.78;79.70
75219;BME280;63801;49.414;19.474;2023-10-08T03:03:43;93541.50;;;13.72;80.15
75219;BME280;63801;49.414;19.474;2023-10-08T03:05:48;93554.72;;;13.81;79.89
75219;BME280;63801;49.414;19.474;2023-10-08T03:07:49;93531.91;;;13.82;79.76
75219;BME280;63801;49.414;19.474;2023-10-08T03:09:52;93538.91;;;13.83;79.53
75219;BME280;63801;49.414;19.474;2023-10-08T03:12:03;93537.34;;;13.85;79.70
75219;BME280;63801;49.414;19.474;2023-10-08T03:14:08;93522.66;;;13.86;79.73
75219;BME280;63801;49.414;19.474;2023-10-08T03:16:15;93522.28;;;13.84;79.50
75219;BME280;63801;49.414;19.474;2023-10-08T03:18:15;93511.03;;;13.86;79.47
75219;BME280;63801;49.414;19.474;2023-10-08T03:20:16;93518.44;;;13.89;79.63
75219;BME280;63801;49.414;19.474;2023-10-08T03:22:35;93522.31;;;13.91;79.21
75219;BME280;63801;49.414;19.474;2023-10-08T03:24:38;93523.47;;;13.90;79.19
75219;BME280;63801;49.414;19.474;2023-10-08T03:26:38;93514.63;;;13.93;79.38
75219;BME280;63801;49.414;19.474;2023-10-08T03:28:45;93529.34;;;13.96;79.03
75219;BME280;63801;49.414;19.474;2023-10-08T03:30:45;93511.81;;;13.86;79.07
75219;BME280;63801;49.414;19.474;2023-10-08T03:32:52;93521.97;;;13.97;79.06
75219;BME280;63801;49.414;19.474;2023-10-08T03:34:55;93532.09;;;14.03;78.44
75219;BME280;63801;49.414;19.474;2023-10-08T03:36:55;93503.34;;;13.91;78.74
75219;BME280;63801;49.414;19.474;2023-10-08T03:39:05;93531.38;;;14.06;78.62
75219;BME280;63801;49.414;19.474;2023-10-08T03:41:13;93530.22;;;14.07;78.85
75219;BME280;63801;49.414;19.474;2023-10-08T03:43:16;93514.28;;;14.02;78.60
75219;BME280;63801;49.414;19.474;2023-10-08T03:45:34;93514.28;;;14.02;78.65
75219;BME280;63801;49.414;19.474;2023-10-08T03:47:53;93518.97;;;14.09;78.53
75219;BME280;63801;49.414;19.474;2023-10-08T03:50:07;93515.91;;;14.10;78.31
75219;BME280;63801;49.414;19.474;2023-10-08T03:52:09;93520.19;;;14.11;78.60
75219;BME280;63801;49.414;19.474;2023-10-08T03:54:10;93515.09;;;14.06;78.31
75219;BME280;63801;49.414;19.474;2023-10-08T03:56:16;93526.78;;;14.14;78.17
75219;BME280;63801;49.414;19.474;2023-10-08T03:58:19;93520.97;;;14.15;78.02
75219;BME280;63801;49.414;19.474;2023-10-08T04:00:29;93521.38;;;14.17;77.90
75219;BME280;63801;49.414;19.474;2023-10-08T04:02:31;93527.56;;;14.18;77.88
75219;BME280;63801;49.414;19.474;2023-10-08T04:04:42;93509.75;;;14.17;77.73
75219;BME280;63801;49.414;19.474;2023-10-08T04:06:53;93512.88;;;14.19;77.50
75219;BME280;63801;49.414;19.474;2023-10-08T04:08:56;93486.44;;;14.05;77.60
75219;BME280;63801;49.414;19.474;2023-10-08T04:11:09;93501.66;;;14.20;77.58
75219;BME280;63801;49.414;19.474;2023-10-08T04:13:22;93515.97;;;14.21;77.43
75219;BME280;63801;49.414;19.474;2023-10-08T04:15:23;93522.16;;;14.21;77.69
75219;BME280;63801;49.414;19.474;2023-10-08T04:17:24;93518.72;;;14.24;77.49
75219;BME280;63801;49.414;19.474;2023-10-08T04:19:24;93528.78;;;14.24;77.36
75219;BME280;63801;49.414;19.474;2023-10-08T04:21:27;93535.00;;;14.24;77.54
75219;BME280;63801;49.414;19.474;2023-10-08T04:23:27;93521.44;;;14.24;77.27
75219;BME280;63801;49.414;19.474;2023-10-08T04:25:30;93530.72;;;14.23;77.81
75219;BME280;63801;49.414;19.474;2023-10-08T04:27:31;93535.78;;;14.25;77.46
75219;BME280;63801;49.414;19.474;2023-10-08T04:29:33;93530.75;;;14.27;77.66
75219;BME280;63801;49.414;19.474;2023-10-08T04:31:36;93536.94;;;14.27;77.51
75219;BME280;63801;49.414;19.474;2023-10-08T04:33:37;93532.66;;;14.26;77.47
75219;BME280;63801;49.414;19.474;2023-10-08T04:35:42;93536.16;;;14.27;77.55
75219;BME280;63801;49.414;19.474;2023-10-08T04:37:55;93527.66;;;14.25;77.59
75219;BME280;63801;49.414;19.474;2023-10-08T04:39:55;93529.94;;;14.23;77.48
75219;BME280;63801;49.414;19.474;2023-10-08T04:42:00;93536.91;;;14.20;77.43
75219;BME280;63801;49.414;19.474;2023-10-08T04:44:06;93535.72;;;14.18;77.71
75219;BME280;63801;49.414;19.474;2023-10-08T04:46:14;93542.63;;;14.12;77.88
75219;BME280;63801;49.414;19.474;2023-10-08T04:48:22;93529.78;;;14.02;77.90
75219;BME280;63801;49.414;19.474;2023-10-08T04:50:23;93544.53;;;14.08;77.71
75219;BME280;63801;49.414;19.474;2023-10-08T04:52:30;93552.25;;;14.06;77.82
75219;BME280;63801;49.414;19.474;2023-10-08T04:54:34;93552.63;;;14.04;77.93
75219;BME280;63801;49.414;19.474;2023-10-08T04:56:40;93559.16;;;14.00;78.18
75219;BME280;63801;49.414;19.474;2023-10-08T04:58:40;93563.78;;;13.95;78.54
75219;BME280;63801;49.414;19.474;2023-10-08T05:00:41;93569.63;;;13.98;78.13
75219;BME280;63801;49.414;19.474;2023-10-08T05:02:44;93565.28;;;13.89;78.65
75219;BME280;63801;49.414;19.474;2023-10-08T05:04:50;93577.66;;;13.87;78.35
75219;BME280;63801;49.414;19.474;2023-10-08T05:07:20;93619.56;;;13.97;78.28
75219;BME280;63801;49.414;19.474;2023-10-08T05:09:39;93629.16;;;13.90;78.05
75219;BME280;63801;49.414;19.474;2023-10-08T05:11:49;93615.81;;;13.71;77.65
75219;BME280;63801;49.414;19.474;2023-10-08T05:13:52;93634.66;;;13.61;77.33
75219;BME280;63801;49.414;19.474;2023-10-08T05:16:06;93647.56;;;13.41;77.22
75219;BME280;63801;49.414;19.474;2023-10-08T05:18:21;93656.63;;;13.22;77.10
75219;BME280;63801;49.414;19.474;2023-10-08T05:20:21;93646.97;;;12.98;77.12
75219;BME280;63801;49.414;19.474;2023-10-08T05:22:42;93667.69;;;12.87;77.15
75219;BME280;63801;49.414;19.474;2023-10-08T05:24:48;93657.78;;;12.72;77.15
75219;BME280;63801;49.414;19.474;2023-10-08T05:27:11;93670.69;;;12.56;77.43
75219;BME280;63801;49.414;19.474;2023-10-08T05:29:38;93692.06;;;12.42;77.41
75219;BME280;63801;49.414;19.474;2023-10-08T05:32:13;93686.72;;;12.23;77.23
75219;BME280;63801;49.414;19.474;2023-10-08T05:34:32;93684.13;;;12.07;77.35
75219;BME280;63801;49.414;19.474;2023-10-08T05:36:46;93720.91;;;11.92;77.33
75219;BME280;63801;49.414;19.474;2023-10-08T05:39:04;93732.16;;;11.75;77.18
75219;BME280;63801;49.414;19.474;2023-10-08T05:41:19;93731.41;;;11.59;77.23
75219;BME280;63801;49.414;19.474;2023-10-08T05:43:35;93728.09;;;11.31;77.52
75219;BME280;63801;49.414;19.474;2023-10-08T05:45:41;93752.81;;;11.33;77.00
75219;BME280;63801;49.414;19.474;2023-10-08T05:47:53;93757.91;;;11.18;77.34
75219;BME280;63801;49.414;19.474;2023-10-08T05:50:13;93770.34;;;11.07;77.23
75219;BME280;63801;49.414;19.474;2023-10-08T05:52:16;93759.69;;;10.95;77.90
75219;BME280;63801;49.414;19.474;2023-10-08T05:54:26;93756.44;;;10.90;77.68
75219;BME280;63801;49.414;19.474;2023-10-08T05:56:32;93769.34;;;10.80;77.44
75219;BME280;63801;49.414;19.474;2023-10-08T05:58:52;93772.19;;;10.72;76.94
75219;BME280;63801;49.414;19.474;2023-10-08T06:01:12;93770.81;;;10.62;78.18
75219;BME280;63801;49.414;19.474;2023-10-08T06:03:29;93775.69;;;10.57;77.68
75219;BME280;63801;49.414;19.474;2023-10-08T06:05:35;93800.91;;;10.49;77.78
75219;BME280;63801;49.414;19.474;2023-10-08T06:07:45;93803.16;;;10.47;77.86
75219;BME280;63801;49.414;19.474;2023-10-08T06:10:06;93820.81;;;10.44;77.99
75219;BME280;63801;49.414;19.474;2023-10-08T06:12:26;93814.03;;;10.22;78.16
75219;BME280;63801;49.414;19.474;2023-10-08T06:14:30;93838.91;;;10.31;77.64
75219;BME280;63801;49.414;19.474;2023-10-08T06:16:53;93844.81;;;10.21;77.76
75219;BME280;63801;49.414;19.474;2023-10-08T06:19:14;93858.53;;;10.16;77.74
75219;BME280;63801;49.414;19.474;2023-10-08T06:21:14;93875.94;;;10.07;77.64
75219;BME280;63801;49.414;19.474;2023-10-08T06:23:17;93880.44;;;10.03;77.79
75219;BME280;63801;49.414;19.474;2023-10-08T06:25:20;93895.72;;;9.99;77.70
75219;BME280;63801;49.414;19.474;2023-10-08T06:27:23;93898.28;;;9.95;77.52
75219;BME280;63801;49.414;19.474;2023-10-08T06:29:25;93907.72;;;9.89;77.81
75219;BME280;63801;49.414;19.474;2023-10-08T06:31:29;93913.66;;;9.82;77.91
75219;BME280;63801;49.414;19.474;2023-10-08T06:33:35;93930.59;;;9.83;77.89
75219;BME280;63801;49.414;19.474;2023-10-08T06:35:35;93947.91;;;9.82;78.03
75219;BME280;63801;49.414;19.474;2023-10-08T06:37:36;93923.69;;;9.82;77.93
75219;BME280;63801;49.414;19.474;2023-10-08T06:39:36;93923.69;;;9.82;78.16
75219;BME280;63801;49.414;19.474;2023-10-08T06:41:49;93929.50;;;9.84;78.12
75219;BME280;63801;49.414;19.474;2023-10-08T06:43:52;93947.22;;;9.85;77.92
75219;BME280;63801;49.414;19.474;2023-10-08T06:46:06;93952.16;;;9.83;77.96
75219;BME280;63801;49.414;19.474;2023-10-08T06:48:13;93970.56;;;9.81;77.75
75219;BME280;63801;49.414;19.474;2023-10-08T06:50:20;93975.84;;;9.77;77.85
75219;BME280;63801;49.414;19.474;2023-10-08T06:52:22;93970.91;;;9.79;78.02
75219;BME280;63801;49.414;19.474;2023-10-08T06:54:23;93975.94;;;9.81;78.04
75219;BME280;63801;49.414;19.474;2023-10-08T06:56:23;93979.75;;;9.80;78.07
75219;BME280;63801;49.414;19.474;2023-10-08T06:58:24;93987.16;;;9.83;78.05
75219;BME280;63801;49.414;19.474;2023-10-08T07:00:24;93970.22;;;9.70;77.81
75219;BME280;63801;49.414;19.474;2023-10-08T07:02:40;93986.03;;;9.84;77.86
75219;BME280;63801;49.414;19.474;2023-10-08T07:04:40;93993.69;;;9.82;78.00
75219;BME280;63801;49.414;19.474;2023-10-08T07:06:44;93991.63;;;9.79;77.78
75219;BME280;63801;49.414;19.474;2023-10-08T07:08:46;94000.19;;;9.81;77.83
75219;BME280;63801;49.414;19.474;2023-10-08T07:10:46;93985.59;;;9.70;77.69
75219;BME280;63801;49.414;19.474;2023-10-08T07:12:47;94013.41;;;9.74;77.80
75219;BME280;63801;49.414;19.474;2023-10-08T07:14:47;94012.19;;;9.71;77.94
75219;BME280;63801;49.414;19.474;2023-10-08T07:16:48;94024.84;;;9.71;77.78
75219;BME280;63801;49.414;19.474;2023-10-08T07:18:52;94013.28;;;9.70;77.82
75219;BME280;63801;49.414;19.474;2023-10-08T07:20:54;94026.75;;;9.70;77.78
75219;BME280;63801;49.414;19.474;2023-10-08T07:22:54;94042.13;;;9.70;77.89
75219;BME280;63801;49.414;19.474;2023-10-08T07:24:55;94036.41;;;9.71;77.89
75219;BME280;63801;49.414;19.474;2023-10-08T07:26:55;94030.00;;;9.64;77.85
75219;BME280;63801;49.414;19.474;2023-10-08T07:28:55;94035.63;;;9.71;77.87
75219;BME280;63801;49.414;19.474;2023-10-08T07:30:56;94057.47;;;9.69;77.98
75219;BME280;63801;49.414;19.474;2023-10-08T07:32:57;94061.41;;;9.72;77.73
75219;BME280;63801;49.414;19.474;2023-10-08T07:34:58;94060.94;;;9.70;77.75
75219;BME280;63801;49.414;19.474;2023-10-08T07:37:15;94061.16;;;9.65;77.55
75219;BME280;63801;49.414;19.474;2023-10-08T07:39:18;94056.94;;;9.64;77.72
75219;BME280;63801;49.414;19.474;2023-10-08T07:41:24;94059.16;;;9.62;77.79
75219;BME280;63801;49.414;19.474;2023-10-08T07:43:25;94057.56;;;9.61;77.27
75219;BME280;63801;49.414;19.474;2023-10-08T07:45:25;94057.34;;;9.54;77.45
75219;BME280;63801;49.414;19.474;2023-10-08T07:47:25;94060.16;;;9.57;77.63
75219;BME280;63801;49.414;19.474;2023-10-08T07:49:28;94066.78;;;9.60;77.57
75219;BME280;63801;49.414;19.474;2023-10-08T07:51:31;94057.03;;;9.55;77.67
75219;BME280;63801;49.414;19.474;2023-10-08T07:53:32;94072.19;;;9.60;77.53
75219;BME280;63801;49.414;19.474;2023-10-08T07:55:38;94072.97;;;9.60;77.66
75219;BME280;63801;49.414;19.474;2023-10-08T07:57:38;94085.41;;;9.65;77.99
75219;BME280;63801;49.414;19.474;2023-10-08T07:59:40;94074.88;;;9.72;77.79
75219;BME280;63801;49.414;19.474;2023-10-08T08:02:00;94081.84;;;9.73;77.46
75219;BME280;63801;49.414;19.474;2023-10-08T08:04:01;94087.34;;;9.76;77.63
75219;BME280;63801;49.414;19.474;2023-10-08T08:06:01;94088.13;;;9.77;77.53
75219;BME280;63801;49.414;19.474;2023-10-08T08:08:02;94078.00;;;9.74;77.58
75219;BME280;63801;49.414;19.474;2023-10-08T08:10:06;94084.88;;;9.83;77.61
75219;BME280;63801;49.414;19.474;2023-10-08T08:12:11;94083.06;;;9.87;77.51
75219;BME280;63801;49.414;19.474;2023-10-08T08:14:12;94092.06;;;9.91;77.47
75219;BME280;63801;49.414;19.474;2023-10-08T08:16:16;94091.72;;;9.93;77.31
75219;BME280;63801;49.414;19.474;2023-10-08T08:18:17;94089.50;;;9.95;77.38
75219;BME280;63801;49.414;19.474;2023-10-08T08:20:22;94091.03;;;9.96;77.16
75219;BME280;63801;49.414;19.474;2023-10-08T08:22:34;94090.41;;;9.99;77.32
75219;BME280;63801;49.414;19.474;2023-10-08T08:24:41;94084.34;;;10.02;77.20
75219;BME280;63801;49.414;19.474;2023-10-08T08:26:45;94081.31;;;10.04;77.20
75219;BME280;63801;49.414;19.474;2023-10-08T08:29:01;94079.16;;;10.09;77.26
75219;BME280;63801;49.414;19.474;2023-10-08T08:31:03;94075.34;;;10.10;77.33
75219;BME280;63801;49.414;19.474;2023-10-08T08:33:04;94092.69;;;10.21;77.24
75219;BME280;63801;49.414;19.474;2023-10-08T08:35:11;94091.78;;;10.29;77.14
75219;BME280;63801;49.414;19.474;2023-10-08T08:37:12;94089.28;;;10.36;77.14
75219;BME280;63801;49.414;19.474;2023-10-08T08:39:12;94092.66;;;10.46;77.00
75219;BME280;63801;49.414;19.474;2023-10-08T08:41:31;94079.63;;;10.48;76.59
75219;BME280;63801;49.414;19.474;2023-10-08T08:43:36;94083.53;;;10.62;76.54
75219;BME280;63801;49.414;19.474;2023-10-08T08:45:37;94094.78;;;10.64;76.09
75219;BME280;63801;49.414;19.474;2023-10-08T08:47:40;94082.75;;;10.62;75.84
75219;BME280;63801;49.414;19.474;2023-10-08T08:49:42;94072.22;;;10.57;75.47
75219;BME280;63801;49.414;19.474;2023-10-08T08:51:42;94085.47;;;10.50;75.20
75219;BME280;63801;49.414;19.474;2023-10-08T08:53:45;94074.69;;;10.38;75.10
75219;BME280;63801;49.414;19.474;2023-10-08T08:55:46;94074.94;;;10.32;75.07
75219;BME280;63801;49.414;19.474;2023-10-08T08:57:50;94072.03;;;10.25;75.00
75219;BME280;63801;49.414;19.474;2023-10-08T08:59:53;94074.94;;;10.20;75.03
75219;BME280;63801;49.414;19.474;2023-10-08T09:01:59;94089.41;;;10.16;75.09
75219;BME280;63801;49.414;19.474;2023-10-08T09:04:01;94092.31;;;10.11;74.72
75219;BME280;63801;49.414;19.474;2023-10-08T09:06:02;94084.34;;;10.02;74.51
75219;BME280;63801;49.414;19.474;2023-10-08T09:08:05;94107.69;;;10.10;74.82
75219;BME280;63801;49.414;19.474;2023-10-08T09:10:09;94116.13;;;10.21;74.90
75219;BME280;63801;49.414;19.474;2023-10-08T09:12:12;94110.63;;;10.29;74.86
75219;BME280;63801;49.414;19.474;2023-10-08T09:14:12;94112.75;;;10.36;74.86
75219;BME280;63801;49.414;19.474;2023-10-08T09:16:15;94117.03;;;10.37;74.48
75219;BME280;63801;49.414;19.474;2023-10-08T09:18:15;94116.91;;;10.33;74.51
75219;BME280;63801;49.414;19.474;2023-10-08T09:20:16;94121.53;;;10.33;74.68
75219;BME280;63801;49.414;19.474;2023-10-08T09:22:17;94126.22;;;10.36;75.16
75219;BME280;63801;49.414;19.474;2023-10-08T09:24:19;94119.63;;;10.33;74.67
75219;BME280;63801;49.414;19.474;2023-10-08T09:26:24;94133.53;;;10.48;74.98
75219;BME280;63801;49.414;19.474;2023-10-08T09:28:25;94111.75;;;10.41;74.95
75219;BME280;63801;49.414;19.474;2023-10-08T09:30:25;94136.91;;;10.57;74.58
75219;BME280;63801;49.414;19.474;2023-10-08T09:32:26;94140.13;;;10.62;74.58
75219;BME280;63801;49.414;19.474;2023-10-08T09:34:28;94142.28;;;10.69;74.78
75219;BME280;63801;49.414;19.474;2023-10-08T09:36:29;94156.50;;;10.94;75.29
75219;BME280;63801;49.414;19.474;2023-10-08T09:38:33;94149.16;;;11.18;75.80
75219;BME280;63801;49.414;19.474;2023-10-08T09:40:37;94148.59;;;11.53;75.04
75219;BME280;63801;49.414;19.474;2023-10-08T09:42:38;94151.69;;;11.67;74.33
75219;BME280;63801;49.414;19.474;2023-10-08T09:44:39;94146.16;;;11.76;73.65
75219;BME280;63801;49.414;19.474;2023-10-08T09:46:40;94130.50;;;11.81;73.84
75219;BME280;63801;49.414;19.474;2023-10-08T09:48:49;94153.03;;;12.17;73.95
75219;BME280;63801;49.414;19.474;2023-10-08T09:50:52;94156.16;;;12.50;73.80
75219;BME280;63801;49.414;19.474;2023-10-08T09:53:10;94147.66;;;12.67;72.35
75219;BME280;63801;49.414;19.474;2023-10-08T09:55:18;94150.06;;;12.88;72.34
75219;BME280;63801;49.414;19.474;2023-10-08T09:57:18;94156.59;;;13.02;72.11
75219;BME280;63801;49.414;19.474;2023-10-08T09:59:19;94141.34;;;12.94;71.12
75219;BME280;63801;49.414;19.474;2023-10-08T10:01:20;94151.53;;;13.01;70.66
75219;BME280;63801;49.414;19.474;2023-10-08T10:03:23;94148.75;;;12.97;71.11
75219;BME280;63801;49.414;19.474;2023-10-08T10:05:29;94160.44;;;13.17;70.13
75219;BME280;63801;49.414;19.474;2023-10-08T10:07:30;94163.50;;;13.35;70.45
75219;BME280;63801;49.414;19.474;2023-10-08T10:09:31;94151.41;;;13.48;70.61
75219;BME280;63801;49.414;19.474;2023-10-08T10:11:36;94161.75;;;13.62;69.02
75219;BME280;63801;49.414;19.474;2023-10-08T10:13:44;94153.03;;;13.53;67.44
75219;BME280;63801;49.414;19.474;2023-10-08T10:15:47;94153.94;;;13.41;67.85
75219;BME280;63801;49.414;19.474;2023-10-08T10:17:47;94158.44;;;13.33;67.83
75219;BME280;63801;49.414;19.474;2023-10-08T10:19:52;94173.94;;;13.52;68.61
75219;BME280;63801;49.414;19.474;2023-10-08T10:21:53;94177.78;;;13.70;68.46
75219;BME280;63801;49.414;19.474;2023-10-08T10:23:56;94183.72;;;13.76;67.67
75219;BME280;63801;49.414;19.474;2023-10-08T10:25:57;94173.56;;;13.73;66.83
75219;BME280;63801;49.414;19.474;2023-10-08T10:30:05;94190.78;;;13.80;66.38
75219;BME280;63801;49.414;19.474;2023-10-08T10:32:12;94173.84;;;13.68;65.41
75219;BME280;63801;49.414;19.474;2023-10-08T10:34:20;94178.69;;;13.59;65.29
75219;BME280;63801;49.414;19.474;2023-10-08T10:36:21;94186.44;;;13.41;64.44
75219;BME280;63801;49.414;19.474;2023-10-08T10:38:23;94181.53;;;13.27;65.24
75219;BME280;63801;49.414;19.474;2023-10-08T10:40:26;94185.53;;;13.33;64.91
75219;BME280;63801;49.414;19.474;2023-10-08T10:42:39;94171.59;;;13.16;64.61
75219;BME280;63801;49.414;19.474;2023-10-08T10:44:48;94180.03;;;13.30;64.71
75219;BME280;63801;49.414;19.474;2023-10-08T10:46:49;94186.88;;;13.43;64.67
75219;BME280;63801;49.414;19.474;2023-10-08T10:49:12;94190.31;;;13.59;64.21
75219;BME280;63801;49.414;19.474;2023-10-08T10:51:21;94171.94;;;13.49;62.61
75219;BME280;63801;49.414;19.474;2023-10-08T10:53:22;94180.84;;;13.69;63.44
75219;BME280;63801;49.414;19.474;2023-10-08T10:55:22;94191.63;;;13.84;63.31
75219;BME280;63801;49.414;19.474;2023-10-08T10:57:31;94159.66;;;13.74;63.13